sensor_id;sensor_type;location;lat;lon;timestamp;P1;durP1;ratioP1;P2;durP2;ratioP2
10226;SDS011;15634;48.766;2.272;2024-01-06T00:01:40;10.52;;;5.43;;
10226;SDS011;15634;48.766;2.272;2024-01-06T00:04:06;8.80;;;5.07;;
10226;SDS011;15634;48.766;2.272;2024-01-06T00:06:31;9.75;;;5.43;;
10226;SDS011;15634;48.766;2.272;2024-01-06T00:08:57;9.35;;;5.30;;
10226;SDS011;15634;48.766;2.272;2024-01-06T00:11:30;13.38;;;7.13;;
10226;SDS011;15634;48.766;2.272;2024-01-06T00:13:56;13.70;;;7.30;;
10226;SDS011;15634;48.766;2.272;2024-01-06T00:16:22;12.63;;;6.57;;
10226;SDS011;15634;48.766;2.272;2024-01-06T00:18:47;11.25;;;5.43;;
10226;SDS011;15634;48.766;2.272;2024-01-06T00:21:16;15.02;;;5.45;;
10226;SDS011;15634;48.766;2.272;2024-01-06T00:23:42;16.00;;;5.72;;
10226;SDS011;15634;48.766;2.272;2024-01-06T00:26:08;9.32;;;5.25;;
10226;SDS011;15634;48.766;2.272;2024-01-06T00:28:38;11.25;;;5.55;;
10226;SDS011;15634;48.766;2.272;2024-01-06T00:31:04;11.13;;;5.60;;
10226;SDS011;15634;48.766;2.272;2024-01-06T00:33:30;10.38;;;5.40;;
10226;SDS011;15634;48.766;2.272;2024-01-06T00:35:56;11.50;;;5.40;;
10226;SDS011;15634;48.766;2.272;2024-01-06T00:38:22;11.77;;;5.65;;
10226;SDS011;15634;48.766;2.272;2024-01-06T00:40:47;11.98;;;5.35;;
10226;SDS011;15634;48.766;2.272;2024-01-06T00:43:13;13.20;;;5.50;;
10226;SDS011;15634;48.766;2.272;2024-01-06T00:45:38;11.57;;;5.70;;
10226;SDS011;15634;48.766;2.272;2024-01-06T00:48:04;10.57;;;5.55;;
10226;SDS011;15634;48.766;2.272;2024-01-06T00:50:30;8.55;;;5.32;;
10226;SDS011;15634;48.766;2.272;2024-01-06T00:52:56;14.07;;;5.85;;
10226;SDS011;15634;48.766;2.272;2024-01-06T00:55:21;10.95;;;5.53;;
10226;SDS011;15634;48.766;2.272;2024-01-06T00:57:48;13.55;;;6.10;;
10226;SDS011;15634;48.766;2.272;2024-01-06T01:00:14;12.98;;;6.90;;
10226;SDS011;15634;48.766;2.272;2024-01-06T01:02:40;9.93;;;5.78;;
10226;SDS011;15634;48.766;2.272;2024-01-06T01:05:05;13.15;;;6.38;;
10226;SDS011;15634;48.766;2.272;2024-01-06T01:07:34;11.38;;;6.80;;
10226;SDS011;15634;48.766;2.272;2024-01-06T01:10:00;32.45;;;13.93;;
10226;SDS011;15634;48.766;2.272;2024-01-06T01:12:26;11.93;;;6.25;;
10226;SDS011;15634;48.766;2.272;2024-01-06T01:14:51;10.43;;;6.20;;
10226;SDS011;15634;48.766;2.272;2024-01-06T01:17:17;11.75;;;6.60;;
10226;SDS011;15634;48.766;2.272;2024-01-06T01:19:43;12.00;;;6.85;;
10226;SDS011;15634;48.766;2.272;2024-01-06T01:22:09;13.63;;;6.25;;
10226;SDS011;15634;48.766;2.272;2024-01-06T01:24:34;13.15;;;6.35;;
10226;SDS011;15634;48.766;2.272;2024-01-06T01:27:00;12.20;;;6.35;;
10226;SDS011;15634;48.766;2.272;2024-01-06T01:29:25;9.55;;;6.65;;
10226;SDS011;15634;48.766;2.272;2024-01-06T01:31:51;11.50;;;7.07;;
10226;SDS011;15634;48.766;2.272;2024-01-06T01:34:17;14.93;;;6.70;;
10226;SDS011;15634;48.766;2.272;2024-01-06T01:36:42;11.95;;;6.32;;
10226;SDS011;15634;48.766;2.272;2024-01-06T01:39:08;9.40;;;6.00;;
10226;SDS011;15634;48.766;2.272;2024-01-06T01:41:34;16.42;;;7.03;;
10226;SDS011;15634;48.766;2.272;2024-01-06T01:44:00;11.98;;;6.57;;
10226;SDS011;15634;48.766;2.272;2024-01-06T01:46:29;13.68;;;6.32;;
10226;SDS011;15634;48.766;2.272;2024-01-06T01:48:56;11.50;;;6.20;;
10226;SDS011;15634;48.766;2.272;2024-01-06T01:51:24;12.15;;;6.68;;
10226;SDS011;15634;48.766;2.272;2024-01-06T01:53:53;12.60;;;6.82;;
10226;SDS011;15634;48.766;2.272;2024-01-06T01:56:19;11.70;;;6.88;;
10226;SDS011;15634;48.766;2.272;2024-01-06T01:58:46;9.45;;;6.18;;
10226;SDS011;15634;48.766;2.272;2024-01-06T02:01:12;12.30;;;6.82;;
10226;SDS011;15634;48.766;2.272;2024-01-06T02:03:39;15.80;;;6.55;;
10226;SDS011;15634;48.766;2.272;2024-01-06T02:06:06;16.63;;;6.88;;
10226;SDS011;15634;48.766;2.272;2024-01-06T02:08:31;13.57;;;6.85;;
10226;SDS011;15634;48.766;2.272;2024-01-06T02:10:57;9.30;;;6.20;;
10226;SDS011;15634;48.766;2.272;2024-01-06T02:13:23;14.63;;;7.07;;
10226;SDS011;15634;48.766;2.272;2024-01-06T02:15:49;15.48;;;7.10;;
10226;SDS011;15634;48.766;2.272;2024-01-06T02:18:15;14.60;;;7.18;;
10226;SDS011;15634;48.766;2.272;2024-01-06T02:20:44;10.60;;;6.72;;
10226;SDS011;15634;48.766;2.272;2024-01-06T02:23:11;17.02;;;7.38;;
10226;SDS011;15634;48.766;2.272;2024-01-06T02:25:37;12.68;;;7.22;;
10226;SDS011;15634;48.766;2.272;2024-01-06T02:28:02;12.75;;;7.45;;
10226;SDS011;15634;48.766;2.272;2024-01-06T02:30:28;11.65;;;6.75;;
10226;SDS011;15634;48.766;2.272;2024-01-06T02:32:54;11.48;;;6.88;;
10226;SDS011;15634;48.766;2.272;2024-01-06T02:35:20;12.70;;;7.45;;
10226;SDS011;15634;48.766;2.272;2024-01-06T02:37:46;10.55;;;6.55;;
10226;SDS011;15634;48.766;2.272;2024-01-06T02:40:11;11.20;;;7.07;;
10226;SDS011;15634;48.766;2.272;2024-01-06T02:42:38;15.95;;;7.55;;
10226;SDS011;15634;48.766;2.272;2024-01-06T02:45:04;15.63;;;7.07;;
10226;SDS011;15634;48.766;2.272;2024-01-06T02:47:29;13.65;;;7.75;;
10226;SDS011;15634;48.766;2.272;2024-01-06T02:49:55;12.93;;;7.22;;
10226;SDS011;15634;48.766;2.272;2024-01-06T02:52:20;12.10;;;7.43;;
10226;SDS011;15634;48.766;2.272;2024-01-06T02:54:47;13.85;;;7.40;;
10226;SDS011;15634;48.766;2.272;2024-01-06T02:57:13;10.82;;;6.97;;
10226;SDS011;15634;48.766;2.272;2024-01-06T02:59:39;17.17;;;7.13;;
10226;SDS011;15634;48.766;2.272;2024-01-06T03:02:04;12.55;;;7.40;;
10226;SDS011;15634;48.766;2.272;2024-01-06T03:04:30;14.57;;;7.22;;
10226;SDS011;15634;48.766;2.272;2024-01-06T03:06:55;16.20;;;7.35;;
10226;SDS011;15634;48.766;2.272;2024-01-06T03:09:21;12.95;;;7.55;;
10226;SDS011;15634;48.766;2.272;2024-01-06T03:11:47;17.38;;;7.20;;
10226;SDS011;15634;48.766;2.272;2024-01-06T03:14:12;17.00;;;7.00;;
10226;SDS011;15634;48.766;2.272;2024-01-06T03:16:38;12.82;;;7.03;;
10226;SDS011;15634;48.766;2.272;2024-01-06T03:19:04;13.93;;;7.22;;
10226;SDS011;15634;48.766;2.272;2024-01-06T03:21:29;12.45;;;6.90;;
10226;SDS011;15634;48.766;2.272;2024-01-06T03:23:55;13.90;;;7.20;;
10226;SDS011;15634;48.766;2.272;2024-01-06T03:26:20;13.02;;;6.68;;
10226;SDS011;15634;48.766;2.272;2024-01-06T03:28:48;13.25;;;6.90;;
10226;SDS011;15634;48.766;2.272;2024-01-06T03:31:14;12.70;;;7.40;;
10226;SDS011;15634;48.766;2.272;2024-01-06T03:33:40;11.50;;;7.45;;
10226;SDS011;15634;48.766;2.272;2024-01-06T03:36:06;12.13;;;7.32;;
10226;SDS011;15634;48.766;2.272;2024-01-06T03:38:32;12.13;;;7.45;;
10226;SDS011;15634;48.766;2.272;2024-01-06T03:40:58;14.05;;;7.50;;
10226;SDS011;15634;48.766;2.272;2024-01-06T03:43:23;13.93;;;7.50;;
10226;SDS011;15634;48.766;2.272;2024-01-06T03:45:49;15.15;;;7.88;;
10226;SDS011;15634;48.766;2.272;2024-01-06T03:48:14;14.10;;;7.38;;
10226;SDS011;15634;48.766;2.272;2024-01-06T03:50:40;15.05;;;7.78;;
10226;SDS011;15634;48.766;2.272;2024-01-06T03:53:05;12.05;;;7.18;;
10226;SDS011;15634;48.766;2.272;2024-01-06T03:55:31;12.88;;;6.82;;
10226;SDS011;15634;48.766;2.272;2024-01-06T03:57:57;16.27;;;7.22;;
10226;SDS011;15634;48.766;2.272;2024-01-06T04:00:23;12.98;;;7.63;;
10226;SDS011;15634;48.766;2.272;2024-01-06T04:02:50;17.30;;;7.80;;
10226;SDS011;15634;48.766;2.272;2024-01-06T04:05:16;12.40;;;7.75;;
10226;SDS011;15634;48.766;2.272;2024-01-06T04:07:42;11.90;;;7.10;;
10226;SDS011;15634;48.766;2.272;2024-01-06T04:10:07;13.48;;;7.45;;
10226;SDS011;15634;48.766;2.272;2024-01-06T04:12:33;13.43;;;7.30;;
10226;SDS011;15634;48.766;2.272;2024-01-06T04:14:59;10.50;;;7.03;;
10226;SDS011;15634;48.766;2.272;2024-01-06T04:17:24;14.40;;;7.40;;
10226;SDS011;15634;48.766;2.272;2024-01-06T04:19:51;12.18;;;7.78;;
10226;SDS011;15634;48.766;2.272;2024-01-06T04:22:17;12.35;;;7.78;;
10226;SDS011;15634;48.766;2.272;2024-01-06T04:24:43;12.80;;;7.30;;
10226;SDS011;15634;48.766;2.272;2024-01-06T04:27:08;13.18;;;7.55;;
10226;SDS011;15634;48.766;2.272;2024-01-06T04:29:34;13.52;;;7.22;;
10226;SDS011;15634;48.766;2.272;2024-01-06T04:32:00;13.63;;;7.15;;
10226;SDS011;15634;48.766;2.272;2024-01-06T04:34:26;13.95;;;8.05;;
10226;SDS011;15634;48.766;2.272;2024-01-06T04:36:51;14.50;;;7.55;;
10226;SDS011;15634;48.766;2.272;2024-01-06T04:39:17;14.02;;;7.70;;
10226;SDS011;15634;48.766;2.272;2024-01-06T04:41:43;10.57;;;6.68;;
10226;SDS011;15634;48.766;2.272;2024-01-06T04:44:08;12.68;;;7.47;;
10226;SDS011;15634;48.766;2.272;2024-01-06T04:46:34;12.02;;;7.90;;
10226;SDS011;15634;48.766;2.272;2024-01-06T04:48:59;15.20;;;7.60;;
10226;SDS011;15634;48.766;2.272;2024-01-06T04:51:25;13.52;;;7.72;;
10226;SDS011;15634;48.766;2.272;2024-01-06T04:53:51;15.27;;;7.85;;
10226;SDS011;15634;48.766;2.272;2024-01-06T04:56:16;14.15;;;8.13;;
10226;SDS011;15634;48.766;2.272;2024-01-06T04:58:42;15.05;;;8.23;;
10226;SDS011;15634;48.766;2.272;2024-01-06T05:01:07;15.52;;;7.28;;
10226;SDS011;15634;48.766;2.272;2024-01-06T05:03:33;12.93;;;7.45;;
10226;SDS011;15634;48.766;2.272;2024-01-06T05:05:58;15.20;;;8.02;;
10226;SDS011;15634;48.766;2.272;2024-01-06T05:08:24;12.85;;;6.97;;
10226;SDS011;15634;48.766;2.272;2024-01-06T05:10:51;13.77;;;7.78;;
10226;SDS011;15634;48.766;2.272;2024-01-06T05:13:19;15.02;;;7.63;;
10226;SDS011;15634;48.766;2.272;2024-01-06T05:15:44;16.75;;;8.35;;
10226;SDS011;15634;48.766;2.272;2024-01-06T05:18:10;14.07;;;7.97;;
10226;SDS011;15634;48.766;2.272;2024-01-06T05:20:35;15.57;;;8.25;;
10226;SDS011;15634;48.766;2.272;2024-01-06T05:23:01;13.85;;;7.88;;
10226;SDS011;15634;48.766;2.272;2024-01-06T05:25:26;13.40;;;7.97;;
10226;SDS011;15634;48.766;2.272;2024-01-06T05:27:52;13.02;;;8.50;;
10226;SDS011;15634;48.766;2.272;2024-01-06T05:30:17;14.80;;;8.32;;
10226;SDS011;15634;48.766;2.272;2024-01-06T05:32:43;16.38;;;8.35;;
10226;SDS011;15634;48.766;2.272;2024-01-06T05:35:09;13.18;;;7.35;;
10226;SDS011;15634;48.766;2.272;2024-01-06T05:37:34;14.10;;;7.90;;
10226;SDS011;15634;48.766;2.272;2024-01-06T05:40:00;14.25;;;7.97;;
10226;SDS011;15634;48.766;2.272;2024-01-06T05:42:29;14.68;;;8.52;;
10226;SDS011;15634;48.766;2.272;2024-01-06T05:44:54;13.63;;;7.80;;
10226;SDS011;15634;48.766;2.272;2024-01-06T05:47:20;13.20;;;8.00;;
10226;SDS011;15634;48.766;2.272;2024-01-06T05:49:45;14.13;;;7.75;;
10226;SDS011;15634;48.766;2.272;2024-01-06T05:52:11;12.73;;;7.95;;
10226;SDS011;15634;48.766;2.272;2024-01-06T05:54:40;11.93;;;7.07;;
10226;SDS011;15634;48.766;2.272;2024-01-06T05:57:07;12.07;;;6.80;;
10226;SDS011;15634;48.766;2.272;2024-01-06T05:59:33;12.68;;;7.03;;
10226;SDS011;15634;48.766;2.272;2024-01-06T06:01:59;11.52;;;6.30;;
10226;SDS011;15634;48.766;2.272;2024-01-06T06:04:25;10.88;;;6.05;;
10226;SDS011;15634;48.766;2.272;2024-01-06T06:06:50;8.93;;;5.85;;
10226;SDS011;15634;48.766;2.272;2024-01-06T06:09:16;10.57;;;5.95;;
10226;SDS011;15634;48.766;2.272;2024-01-06T06:11:42;10.70;;;5.90;;
10226;SDS011;15634;48.766;2.272;2024-01-06T06:14:08;9.60;;;6.30;;
10226;SDS011;15634;48.766;2.272;2024-01-06T06:16:34;12.23;;;6.40;;
10226;SDS011;15634;48.766;2.272;2024-01-06T06:19:00;18.45;;;6.47;;
10226;SDS011;15634;48.766;2.272;2024-01-06T06:21:25;10.38;;;6.25;;
10226;SDS011;15634;48.766;2.272;2024-01-06T06:23:51;16.60;;;7.07;;
10226;SDS011;15634;48.766;2.272;2024-01-06T06:26:16;13.75;;;6.82;;
10226;SDS011;15634;48.766;2.272;2024-01-06T06:28:42;10.50;;;6.53;;
10226;SDS011;15634;48.766;2.272;2024-01-06T06:31:08;13.15;;;6.78;;
10226;SDS011;15634;48.766;2.272;2024-01-06T06:33:34;13.55;;;6.80;;
10226;SDS011;15634;48.766;2.272;2024-01-06T06:35:59;13.98;;;7.63;;
10226;SDS011;15634;48.766;2.272;2024-01-06T06:38:26;10.82;;;7.38;;
10226;SDS011;15634;48.766;2.272;2024-01-06T06:40:52;12.45;;;7.00;;
10226;SDS011;15634;48.766;2.272;2024-01-06T06:43:17;12.32;;;7.57;;
10226;SDS011;15634;48.766;2.272;2024-01-06T06:45:43;13.13;;;6.75;;
10226;SDS011;15634;48.766;2.272;2024-01-06T06:48:09;13.20;;;7.43;;
10226;SDS011;15634;48.766;2.272;2024-01-06T06:50:34;14.60;;;6.43;;
10226;SDS011;15634;48.766;2.272;2024-01-06T06:53:00;9.93;;;6.18;;
10226;SDS011;15634;48.766;2.272;2024-01-06T06:55:28;10.60;;;6.18;;
10226;SDS011;15634;48.766;2.272;2024-01-06T06:57:54;13.20;;;6.47;;
10226;SDS011;15634;48.766;2.272;2024-01-06T07:00:19;9.95;;;6.07;;
10226;SDS011;15634;48.766;2.272;2024-01-06T07:02:45;9.90;;;5.55;;
10226;SDS011;15634;48.766;2.272;2024-01-06T07:05:11;10.02;;;5.70;;
10226;SDS011;15634;48.766;2.272;2024-01-06T07:07:37;9.30;;;5.35;;
10226;SDS011;15634;48.766;2.272;2024-01-06T07:10:03;9.32;;;5.40;;
10226;SDS011;15634;48.766;2.272;2024-01-06T07:12:30;10.68;;;5.32;;
10226;SDS011;15634;48.766;2.272;2024-01-06T07:14:56;8.10;;;5.30;;
10226;SDS011;15634;48.766;2.272;2024-01-06T07:17:22;11.15;;;5.32;;
10226;SDS011;15634;48.766;2.272;2024-01-06T07:19:47;11.32;;;5.60;;
10226;SDS011;15634;48.766;2.272;2024-01-06T07:22:13;8.88;;;4.50;;
10226;SDS011;15634;48.766;2.272;2024-01-06T07:24:41;10.35;;;5.10;;
10226;SDS011;15634;48.766;2.272;2024-01-06T07:27:07;6.47;;;4.35;;
10226;SDS011;15634;48.766;2.272;2024-01-06T07:29:32;7.82;;;5.20;;
10226;SDS011;15634;48.766;2.272;2024-01-06T07:31:58;10.10;;;5.00;;
10226;SDS011;15634;48.766;2.272;2024-01-06T07:34:23;14.52;;;5.40;;
10226;SDS011;15634;48.766;2.272;2024-01-06T07:36:50;8.30;;;5.38;;
10226;SDS011;15634;48.766;2.272;2024-01-06T07:39:16;10.07;;;5.22;;
10226;SDS011;15634;48.766;2.272;2024-01-06T07:41:41;11.18;;;5.68;;
10226;SDS011;15634;48.766;2.272;2024-01-06T07:44:07;10.25;;;6.15;;
10226;SDS011;15634;48.766;2.272;2024-01-06T07:46:33;9.82;;;5.68;;
10226;SDS011;15634;48.766;2.272;2024-01-06T07:49:00;11.07;;;6.03;;
10226;SDS011;15634;48.766;2.272;2024-01-06T07:51:25;10.52;;;5.10;;
10226;SDS011;15634;48.766;2.272;2024-01-06T07:53:51;8.95;;;5.30;;
10226;SDS011;15634;48.766;2.272;2024-01-06T07:56:16;7.55;;;5.30;;
10226;SDS011;15634;48.766;2.272;2024-01-06T07:58:43;7.68;;;5.15;;
10226;SDS011;15634;48.766;2.272;2024-01-06T08:01:08;8.55;;;4.85;;
10226;SDS011;15634;48.766;2.272;2024-01-06T08:03:34;8.60;;;4.63;;
10226;SDS011;15634;48.766;2.272;2024-01-06T08:05:59;8.73;;;4.32;;
10226;SDS011;15634;48.766;2.272;2024-01-06T08:08:25;9.77;;;4.55;;
10226;SDS011;15634;48.766;2.272;2024-01-06T08:10:51;13.32;;;4.78;;
10226;SDS011;15634;48.766;2.272;2024-01-06T08:13:17;9.27;;;3.90;;
10226;SDS011;15634;48.766;2.272;2024-01-06T08:15:42;9.27;;;4.45;;
10226;SDS011;15634;48.766;2.272;2024-01-06T08:18:08;6.75;;;4.00;;
10226;SDS011;15634;48.766;2.272;2024-01-06T08:20:34;9.38;;;4.28;;
10226;SDS011;15634;48.766;2.272;2024-01-06T08:22:59;11.20;;;4.20;;
10226;SDS011;15634;48.766;2.272;2024-01-06T08:25:25;6.88;;;3.53;;
10226;SDS011;15634;48.766;2.272;2024-01-06T08:27:50;9.55;;;3.60;;
10226;SDS011;15634;48.766;2.272;2024-01-06T08:30:16;5.95;;;3.33;;
10226;SDS011;15634;48.766;2.272;2024-01-06T08:32:42;7.95;;;3.65;;
10226;SDS011;15634;48.766;2.272;2024-01-06T08:35:07;6.88;;;3.45;;
10226;SDS011;15634;48.766;2.272;2024-01-06T08:37:34;5.47;;;3.30;;
10226;SDS011;15634;48.766;2.272;2024-01-06T08:40:00;5.38;;;3.28;;
10226;SDS011;15634;48.766;2.272;2024-01-06T08:42:26;5.10;;;3.10;;
10226;SDS011;15634;48.766;2.272;2024-01-06T08:44:52;9.40;;;3.15;;
10226;SDS011;15634;48.766;2.272;2024-01-06T08:47:17;6.28;;;2.95;;
10226;SDS011;15634;48.766;2.272;2024-01-06T08:49:43;5.45;;;3.17;;
10226;SDS011;15634;48.766;2.272;2024-01-06T08:52:09;5.30;;;2.50;;
10226;SDS011;15634;48.766;2.272;2024-01-06T08:54:34;4.30;;;2.80;;
10226;SDS011;15634;48.766;2.272;2024-01-06T08:57:00;6.60;;;3.10;;
10226;SDS011;15634;48.766;2.272;2024-01-06T08:59:26;7.20;;;2.80;;
10226;SDS011;15634;48.766;2.272;2024-01-06T09:01:51;6.65;;;2.92;;
10226;SDS011;15634;48.766;2.272;2024-01-06T09:04:17;6.00;;;3.05;;
10226;SDS011;15634;48.766;2.272;2024-01-06T09:06:43;5.72;;;3.08;;
10226;SDS011;15634;48.766;2.272;2024-01-06T09:09:11;6.45;;;2.92;;
10226;SDS011;15634;48.766;2.272;2024-01-06T09:11:37;6.55;;;3.70;;
10226;SDS011;15634;48.766;2.272;2024-01-06T09:14:03;7.78;;;3.92;;
10226;SDS011;15634;48.766;2.272;2024-01-06T09:16:28;8.80;;;3.63;;
10226;SDS011;15634;48.766;2.272;2024-01-06T09:18:54;7.60;;;3.33;;
10226;SDS011;15634;48.766;2.272;2024-01-06T09:21:20;7.22;;;3.40;;
10226;SDS011;15634;48.766;2.272;2024-01-06T09:23:45;8.10;;;3.25;;
10226;SDS011;15634;48.766;2.272;2024-01-06T09:26:11;8.07;;;3.47;;
10226;SDS011;15634;48.766;2.272;2024-01-06T09:28:36;6.47;;;2.90;;
10226;SDS011;15634;48.766;2.272;2024-01-06T09:31:02;5.97;;;3.13;;
10226;SDS011;15634;48.766;2.272;2024-01-06T09:33:29;3.38;;;2.35;;
10226;SDS011;15634;48.766;2.272;2024-01-06T09:35:55;5.03;;;2.83;;
10226;SDS011;15634;48.766;2.272;2024-01-06T09:38:20;6.88;;;2.53;;
10226;SDS011;15634;48.766;2.272;2024-01-06T09:40:46;11.05;;;3.08;;
10226;SDS011;15634;48.766;2.272;2024-01-06T09:43:13;6.57;;;3.03;;
10226;SDS011;15634;48.766;2.272;2024-01-06T09:45:40;4.88;;;2.28;;
10226;SDS011;15634;48.766;2.272;2024-01-06T09:48:14;3.38;;;2.30;;
10226;SDS011;15634;48.766;2.272;2024-01-06T09:50:42;5.18;;;2.83;;
10226;SDS011;15634;48.766;2.272;2024-01-06T09:53:12;3.33;;;2.30;;
10226;SDS011;15634;48.766;2.272;2024-01-06T09:55:39;6.47;;;3.10;;
10226;SDS011;15634;48.766;2.272;2024-01-06T09:58:05;4.38;;;2.72;;
10226;SDS011;15634;48.766;2.272;2024-01-06T10:00:35;3.80;;;2.50;;
10226;SDS011;15634;48.766;2.272;2024-01-06T10:03:00;3.60;;;2.28;;
10226;SDS011;15634;48.766;2.272;2024-01-06T10:05:26;6.35;;;2.70;;
10226;SDS011;15634;48.766;2.272;2024-01-06T10:07:52;7.30;;;2.70;;
10226;SDS011;15634;48.766;2.272;2024-01-06T10:10:17;6.43;;;2.70;;
10226;SDS011;15634;48.766;2.272;2024-01-06T10:12:44;7.25;;;3.05;;
10226;SDS011;15634;48.766;2.272;2024-01-06T10:15:11;5.30;;;2.38;;
10226;SDS011;15634;48.766;2.272;2024-01-06T10:17:40;6.47;;;2.70;;
10226;SDS011;15634;48.766;2.272;2024-01-06T10:20:09;5.82;;;2.33;;
10226;SDS011;15634;48.766;2.272;2024-01-06T10:22:37;4.05;;;2.17;;
10226;SDS011;15634;48.766;2.272;2024-01-06T10:25:09;4.65;;;2.13;;
10226;SDS011;15634;48.766;2.272;2024-01-06T10:27:39;8.93;;;2.25;;
10226;SDS011;15634;48.766;2.272;2024-01-06T10:30:08;6.10;;;2.35;;
10226;SDS011;15634;48.766;2.272;2024-01-06T10:32:34;3.67;;;2.10;;
10226;SDS011;15634;48.766;2.272;2024-01-06T10:35:01;3.10;;;2.03;;
10226;SDS011;15634;48.766;2.272;2024-01-06T10:37:28;3.00;;;2.15;;
10226;SDS011;15634;48.766;2.272;2024-01-06T10:40:07;4.10;;;2.00;;
10226;SDS011;15634;48.766;2.272;2024-01-06T10:42:37;3.25;;;1.85;;
10226;SDS011;15634;48.766;2.272;2024-01-06T10:45:06;4.40;;;1.80;;
10226;SDS011;15634;48.766;2.272;2024-01-06T10:47:36;6.40;;;2.42;;
10226;SDS011;15634;48.766;2.272;2024-01-06T10:50:02;3.65;;;1.80;;
10226;SDS011;15634;48.766;2.272;2024-01-06T10:52:29;2.50;;;1.85;;
10226;SDS011;15634;48.766;2.272;2024-01-06T10:54:55;3.67;;;2.25;;
10226;SDS011;15634;48.766;2.272;2024-01-06T10:57:21;4.85;;;1.98;;
10226;SDS011;15634;48.766;2.272;2024-01-06T10:59:51;7.55;;;2.20;;
10226;SDS011;15634;48.766;2.272;2024-01-06T11:02:19;5.07;;;2.05;;
10226;SDS011;15634;48.766;2.272;2024-01-06T11:04:47;5.50;;;1.88;;
10226;SDS011;15634;48.766;2.272;2024-01-06T11:07:15;4.70;;;1.95;;
10226;SDS011;15634;48.766;2.272;2024-01-06T11:09:46;6.57;;;2.58;;
10226;SDS011;15634;48.766;2.272;2024-01-06T11:12:23;4.32;;;2.00;;
10226;SDS011;15634;48.766;2.272;2024-01-06T11:14:51;4.80;;;2.05;;
10226;SDS011;15634;48.766;2.272;2024-01-06T11:20:18;5.90;;;2.00;;
10226;SDS011;15634;48.766;2.272;2024-01-06T11:22:44;5.72;;;2.25;;
10226;SDS011;15634;48.766;2.272;2024-01-06T11:25:14;4.05;;;2.05;;
10226;SDS011;15634;48.766;2.272;2024-01-06T11:27:45;4.22;;;2.20;;
10226;SDS011;15634;48.766;2.272;2024-01-06T11:30:19;6.35;;;2.20;;
10226;SDS011;15634;48.766;2.272;2024-01-06T11:32:50;5.22;;;1.98;;
10226;SDS011;15634;48.766;2.272;2024-01-06T11:35:18;4.22;;;1.98;;
10226;SDS011;15634;48.766;2.272;2024-01-06T11:43:04;2.95;;;2.00;;
10226;SDS011;15634;48.766;2.272;2024-01-06T11:45:31;3.58;;;1.88;;
10226;SDS011;15634;48.766;2.272;2024-01-06T11:48:06;3.25;;;2.03;;
10226;SDS011;15634;48.766;2.272;2024-01-06T11:50:36;3.65;;;1.70;;
10226;SDS011;15634;48.766;2.272;2024-01-06T11:53:03;4.97;;;2.13;;
10226;SDS011;15634;48.766;2.272;2024-01-06T11:55:30;6.90;;;2.20;;
10226;SDS011;15634;48.766;2.272;2024-01-06T11:57:59;3.45;;;1.80;;
10226;SDS011;15634;48.766;2.272;2024-01-06T12:00:30;5.55;;;1.98;;
10226;SDS011;15634;48.766;2.272;2024-01-06T12:02:57;4.15;;;2.33;;
10226;SDS011;15634;48.766;2.272;2024-01-06T12:05:24;4.07;;;2.10;;
10226;SDS011;15634;48.766;2.272;2024-01-06T12:10:25;4.32;;;1.92;;
10226;SDS011;15634;48.766;2.272;2024-01-06T12:13:00;5.32;;;1.80;;
10226;SDS011;15634;48.766;2.272;2024-01-06T12:15:28;4.03;;;2.10;;
10226;SDS011;15634;48.766;2.272;2024-01-06T12:17:55;3.72;;;1.98;;
10226;SDS011;15634;48.766;2.272;2024-01-06T12:20:21;3.05;;;1.90;;
10226;SDS011;15634;48.766;2.272;2024-01-06T12:22:49;3.60;;;2.28;;
10226;SDS011;15634;48.766;2.272;2024-01-06T12:25:17;6.38;;;2.10;;
10226;SDS011;15634;48.766;2.272;2024-01-06T12:27:43;4.13;;;2.20;;
10226;SDS011;15634;48.766;2.272;2024-01-06T12:30:13;3.45;;;2.05;;
10226;SDS011;15634;48.766;2.272;2024-01-06T12:32:41;3.72;;;1.90;;
10226;SDS011;15634;48.766;2.272;2024-01-06T12:35:08;3.95;;;2.10;;
10226;SDS011;15634;48.766;2.272;2024-01-06T12:37:35;3.53;;;1.85;;
10226;SDS011;15634;48.766;2.272;2024-01-06T12:40:01;7.50;;;2.03;;
10226;SDS011;15634;48.766;2.272;2024-01-06T12:42:27;4.28;;;2.10;;
10226;SDS011;15634;48.766;2.272;2024-01-06T12:44:52;2.97;;;2.08;;
10226;SDS011;15634;48.766;2.272;2024-01-06T12:47:18;4.05;;;2.22;;
10226;SDS011;15634;48.766;2.272;2024-01-06T12:49:44;7.55;;;2.28;;
10226;SDS011;15634;48.766;2.272;2024-01-06T12:52:09;4.60;;;2.13;;
10226;SDS011;15634;48.766;2.272;2024-01-06T12:54:35;4.63;;;2.55;;
10226;SDS011;15634;48.766;2.272;2024-01-06T12:57:01;3.15;;;2.10;;
10226;SDS011;15634;48.766;2.272;2024-01-06T12:59:26;6.85;;;2.30;;
10226;SDS011;15634;48.766;2.272;2024-01-06T13:01:52;3.33;;;2.25;;
10226;SDS011;15634;48.766;2.272;2024-01-06T13:04:17;2.75;;;1.85;;
10226;SDS011;15634;48.766;2.272;2024-01-06T13:06:43;6.57;;;2.17;;
10226;SDS011;15634;48.766;2.272;2024-01-06T13:09:09;4.03;;;1.88;;
10226;SDS011;15634;48.766;2.272;2024-01-06T13:11:41;5.50;;;2.13;;
10226;SDS011;15634;48.766;2.272;2024-01-06T13:14:07;5.32;;;2.45;;
10226;SDS011;15634;48.766;2.272;2024-01-06T13:16:32;5.10;;;2.30;;
10226;SDS011;15634;48.766;2.272;2024-01-06T13:18:58;5.82;;;2.20;;
10226;SDS011;15634;48.766;2.272;2024-01-06T13:21:24;4.80;;;2.10;;
10226;SDS011;15634;48.766;2.272;2024-01-06T13:23:50;3.15;;;2.15;;
10226;SDS011;15634;48.766;2.272;2024-01-06T13:26:15;5.05;;;2.20;;
10226;SDS011;15634;48.766;2.272;2024-01-06T13:28:41;4.20;;;2.00;;
10226;SDS011;15634;48.766;2.272;2024-01-06T13:31:07;3.92;;;2.17;;
10226;SDS011;15634;48.766;2.272;2024-01-06T13:33:33;4.15;;;2.30;;
10226;SDS011;15634;48.766;2.272;2024-01-06T13:35:58;4.57;;;2.10;;
10226;SDS011;15634;48.766;2.272;2024-01-06T13:38:26;3.78;;;2.05;;
10226;SDS011;15634;48.766;2.272;2024-01-06T13:40:51;4.00;;;2.00;;
10226;SDS011;15634;48.766;2.272;2024-01-06T13:43:18;5.43;;;2.20;;
10226;SDS011;15634;48.766;2.272;2024-01-06T13:45:43;3.58;;;2.20;;
10226;SDS011;15634;48.766;2.272;2024-01-06T13:48:09;3.45;;;2.22;;
10226;SDS011;15634;48.766;2.272;2024-01-06T13:50:35;4.47;;;2.10;;
10226;SDS011;15634;48.766;2.272;2024-01-06T13:53:01;5.13;;;2.40;;
10226;SDS011;15634;48.766;2.272;2024-01-06T13:55:28;3.22;;;1.80;;
10226;SDS011;15634;48.766;2.272;2024-01-06T13:57:54;5.13;;;2.35;;
10226;SDS011;15634;48.766;2.272;2024-01-06T14:00:23;3.90;;;1.95;;
10226;SDS011;15634;48.766;2.272;2024-01-06T14:02:50;2.50;;;1.60;;
10226;SDS011;15634;48.766;2.272;2024-01-06T14:05:17;2.88;;;2.08;;
10226;SDS011;15634;48.766;2.272;2024-01-06T14:07:44;4.93;;;2.00;;
10226;SDS011;15634;48.766;2.272;2024-01-06T14:10:13;3.50;;;1.65;;
10226;SDS011;15634;48.766;2.272;2024-01-06T14:12:39;4.65;;;1.83;;
10226;SDS011;15634;48.766;2.272;2024-01-06T14:15:05;5.88;;;2.00;;
10226;SDS011;15634;48.766;2.272;2024-01-06T14:17:32;2.75;;;1.73;;
10226;SDS011;15634;48.766;2.272;2024-01-06T14:19:57;4.30;;;2.10;;
10226;SDS011;15634;48.766;2.272;2024-01-06T14:22:23;2.50;;;1.75;;
10226;SDS011;15634;48.766;2.272;2024-01-06T14:24:49;2.90;;;1.48;;
10226;SDS011;15634;48.766;2.272;2024-01-06T14:27:15;3.53;;;1.83;;
10226;SDS011;15634;48.766;2.272;2024-01-06T14:29:41;4.68;;;2.20;;
10226;SDS011;15634;48.766;2.272;2024-01-06T14:32:07;3.70;;;1.77;;
10226;SDS011;15634;48.766;2.272;2024-01-06T14:34:32;2.50;;;1.83;;
10226;SDS011;15634;48.766;2.272;2024-01-06T14:36:59;9.77;;;4.10;;
10226;SDS011;15634;48.766;2.272;2024-01-06T14:39:24;4.63;;;2.00;;
10226;SDS011;15634;48.766;2.272;2024-01-06T14:41:50;3.35;;;2.00;;
10226;SDS011;15634;48.766;2.272;2024-01-06T14:44:16;3.72;;;1.75;;
10226;SDS011;15634;48.766;2.272;2024-01-06T14:46:45;7.63;;;2.50;;